sensor_id;sensor_type;location;lat;lon;timestamp;P1;durP1;ratioP1;P2;durP2;ratioP2
71888;SDS011;59762;49.998;14.858;2023-12-07T00:01:46;24.48;;;10.93;;
71888;SDS011;59762;49.998;14.858;2023-12-07T00:04:12;25.75;;;9.82;;
71888;SDS011;59762;49.998;14.858;2023-12-07T00:06:38;34.03;;;10.10;;
71888;SDS011;59762;49.998;14.858;2023-12-07T00:09:03;21.15;;;9.23;;
71888;SDS011;59762;49.998;14.858;2023-12-07T00:11:29;34.85;;;11.30;;
71888;SDS011;59762;49.998;14.858;2023-12-07T00:13:55;17.27;;;10.18;;
71888;SDS011;59762;49.998;14.858;2023-12-07T00:16:21;23.98;;;9.07;;
71888;SDS011;59762;49.998;14.858;2023-12-07T00:18:46;19.52;;;7.60;;
71888;SDS011;59762;49.998;14.858;2023-12-07T00:21:12;29.38;;;10.98;;
71888;SDS011;59762;49.998;14.858;2023-12-07T00:23:37;19.30;;;9.80;;
71888;SDS011;59762;49.998;14.858;2023-12-07T00:26:04;19.08;;;9.38;;
71888;SDS011;59762;49.998;14.858;2023-12-07T00:28:29;19.27;;;9.07;;
71888;SDS011;59762;49.998;14.858;2023-12-07T00:30:55;22.98;;;11.27;;
71888;SDS011;59762;49.998;14.858;2023-12-07T00:33:21;24.55;;;8.73;;
71888;SDS011;59762;49.998;14.858;2023-12-07T00:35:48;21.10;;;9.27;;
71888;SDS011;59762;49.998;14.858;2023-12-07T00:38:13;19.85;;;10.40;;
71888;SDS011;59762;49.998;14.858;2023-12-07T00:40:39;19.48;;;7.90;;
71888;SDS011;59762;49.998;14.858;2023-12-07T00:43:05;22.52;;;9.27;;
71888;SDS011;59762;49.998;14.858;2023-12-07T00:45:32;19.45;;;6.95;;
71888;SDS011;59762;49.998;14.858;2023-12-07T00:47:58;16.13;;;7.10;;
71888;SDS011;59762;49.998;14.858;2023-12-07T00:50:24;16.95;;;7.55;;
71888;SDS011;59762;49.998;14.858;2023-12-07T00:52:49;8.88;;;5.03;;
71888;SDS011;59762;49.998;14.858;2023-12-07T00:55:15;8.63;;;6.63;;
71888;SDS011;59762;49.998;14.858;2023-12-07T00:57:41;16.70;;;6.68;;
71888;SDS011;59762;49.998;14.858;2023-12-07T01:00:07;19.08;;;8.00;;
71888;SDS011;59762;49.998;14.858;2023-12-07T01:02:33;16.92;;;6.32;;
71888;SDS011;59762;49.998;14.858;2023-12-07T01:04:59;9.02;;;4.53;;
71888;SDS011;59762;49.998;14.858;2023-12-07T01:07:25;12.40;;;5.70;;
71888;SDS011;59762;49.998;14.858;2023-12-07T01:09:51;7.32;;;3.30;;
71888;SDS011;59762;49.998;14.858;2023-12-07T01:12:17;8.82;;;4.40;;
71888;SDS011;59762;49.998;14.858;2023-12-07T01:14:43;10.13;;;5.80;;
71888;SDS011;59762;49.998;14.858;2023-12-07T01:17:08;9.23;;;5.28;;
71888;SDS011;59762;49.998;14.858;2023-12-07T01:19:34;13.38;;;4.82;;
71888;SDS011;59762;49.998;14.858;2023-12-07T01:22:00;7.45;;;4.30;;
71888;SDS011;59762;49.998;14.858;2023-12-07T01:24:26;10.13;;;4.93;;
71888;SDS011;59762;49.998;14.858;2023-12-07T01:26:51;6.97;;;4.25;;
71888;SDS011;59762;49.998;14.858;2023-12-07T01:29:17;10.35;;;3.45;;
71888;SDS011;59762;49.998;14.858;2023-12-07T01:31:43;12.65;;;5.78;;
71888;SDS011;59762;49.998;14.858;2023-12-07T01:34:09;11.02;;;5.35;;
71888;SDS011;59762;49.998;14.858;2023-12-07T01:36:35;7.75;;;4.97;;
71888;SDS011;59762;49.998;14.858;2023-12-07T01:39:01;10.27;;;4.55;;
71888;SDS011;59762;49.998;14.858;2023-12-07T01:41:27;7.57;;;4.97;;
71888;SDS011;59762;49.998;14.858;2023-12-07T01:43:53;9.38;;;5.60;;
71888;SDS011;59762;49.998;14.858;2023-12-07T01:46:18;11.32;;;6.03;;
71888;SDS011;59762;49.998;14.858;2023-12-07T01:48:44;10.52;;;6.68;;
71888;SDS011;59762;49.998;14.858;2023-12-07T01:51:14;9.45;;;5.40;;
71888;SDS011;59762;49.998;14.858;2023-12-07T01:53:40;9.30;;;4.43;;
71888;SDS011;59762;49.998;14.858;2023-12-07T01:56:06;11.88;;;4.95;;
71888;SDS011;59762;49.998;14.858;2023-12-07T01:58:33;7.93;;;4.53;;
71888;SDS011;59762;49.998;14.858;2023-12-07T02:01:00;8.30;;;4.85;;
71888;SDS011;59762;49.998;14.858;2023-12-07T02:03:26;9.55;;;6.18;;
71888;SDS011;59762;49.998;14.858;2023-12-07T02:05:55;4.93;;;3.80;;
71888;SDS011;59762;49.998;14.858;2023-12-07T02:08:22;10.25;;;4.85;;
71888;SDS011;59762;49.998;14.858;2023-12-07T02:10:48;11.10;;;5.47;;
71888;SDS011;59762;49.998;14.858;2023-12-07T02:13:14;7.13;;;4.47;;
71888;SDS011;59762;49.998;14.858;2023-12-07T02:15:40;6.80;;;3.05;;
71888;SDS011;59762;49.998;14.858;2023-12-07T02:20:55;7.13;;;3.50;;
71888;SDS011;59762;49.998;14.858;2023-12-07T02:23:22;5.07;;;3.15;;
71888;SDS011;59762;49.998;14.858;2023-12-07T02:25:52;5.88;;;4.05;;
71888;SDS011;59762;49.998;14.858;2023-12-07T02:28:19;7.25;;;3.85;;
71888;SDS011;59762;49.998;14.858;2023-12-07T02:30:45;11.75;;;4.07;;
71888;SDS011;59762;49.998;14.858;2023-12-07T02:33:11;3.28;;;2.97;;
71888;SDS011;59762;49.998;14.858;2023-12-07T02:35:37;5.70;;;3.28;;
71888;SDS011;59762;49.998;14.858;2023-12-07T02:38:05;8.10;;;3.58;;
71888;SDS011;59762;49.998;14.858;2023-12-07T02:40:32;5.28;;;3.08;;
71888;SDS011;59762;49.998;14.858;2023-12-07T02:42:59;8.18;;;3.65;;
71888;SDS011;59762;49.998;14.858;2023-12-07T02:45:26;7.65;;;3.22;;
71888;SDS011;59762;49.998;14.858;2023-12-07T02:47:53;5.43;;;3.92;;
71888;SDS011;59762;49.998;14.858;2023-12-07T02:50:19;7.68;;;4.72;;
71888;SDS011;59762;49.998;14.858;2023-12-07T02:52:45;5.20;;;3.05;;
71888;SDS011;59762;49.998;14.858;2023-12-07T02:55:11;5.38;;;3.42;;
71888;SDS011;59762;49.998;14.858;2023-12-07T02:57:37;3.92;;;2.92;;
71888;SDS011;59762;49.998;14.858;2023-12-07T03:00:03;9.20;;;4.38;;
71888;SDS011;59762;49.998;14.858;2023-12-07T03:02:33;6.20;;;3.85;;
71888;SDS011;59762;49.998;14.858;2023-12-07T03:05:00;7.30;;;4.07;;
71888;SDS011;59762;49.998;14.858;2023-12-07T03:07:26;9.23;;;4.22;;
71888;SDS011;59762;49.998;14.858;2023-12-07T03:09:52;5.53;;;3.13;;
71888;SDS011;59762;49.998;14.858;2023-12-07T03:12:18;5.38;;;3.65;;
71888;SDS011;59762;49.998;14.858;2023-12-07T03:14:43;7.05;;;4.28;;
71888;SDS011;59762;49.998;14.858;2023-12-07T03:17:09;7.43;;;4.03;;
71888;SDS011;59762;49.998;14.858;2023-12-07T03:19:40;5.78;;;3.25;;
71888;SDS011;59762;49.998;14.858;2023-12-07T03:22:07;8.68;;;3.72;;
71888;SDS011;59762;49.998;14.858;2023-12-07T03:24:37;7.47;;;4.18;;
71888;SDS011;59762;49.998;14.858;2023-12-07T03:27:04;11.52;;;3.33;;
71888;SDS011;59762;49.998;14.858;2023-12-07T03:29:30;5.03;;;3.95;;
71888;SDS011;59762;49.998;14.858;2023-12-07T03:31:57;6.40;;;4.45;;
71888;SDS011;59762;49.998;14.858;2023-12-07T03:34:23;7.45;;;3.58;;
71888;SDS011;59762;49.998;14.858;2023-12-07T03:36:49;6.97;;;4.72;;
71888;SDS011;59762;49.998;14.858;2023-12-07T03:39:15;5.95;;;2.90;;
71888;SDS011;59762;49.998;14.858;2023-12-07T03:41:43;6.82;;;3.67;;
71888;SDS011;59762;49.998;14.858;2023-12-07T03:44:10;4.38;;;3.42;;
71888;SDS011;59762;49.998;14.858;2023-12-07T03:46:35;3.70;;;3.10;;
71888;SDS011;59762;49.998;14.858;2023-12-07T03:49:01;7.47;;;3.55;;
71888;SDS011;59762;49.998;14.858;2023-12-07T03:51:27;4.78;;;2.88;;
71888;SDS011;59762;49.998;14.858;2023-12-07T03:53:54;7.07;;;3.25;;
71888;SDS011;59762;49.998;14.858;2023-12-07T03:56:24;4.80;;;3.95;;
71888;SDS011;59762;49.998;14.858;2023-12-07T03:58:50;5.40;;;3.05;;
71888;SDS011;59762;49.998;14.858;2023-12-07T04:01:16;7.30;;;4.15;;
71888;SDS011;59762;49.998;14.858;2023-12-07T04:03:42;4.15;;;3.38;;
71888;SDS011;59762;49.998;14.858;2023-12-07T04:06:07;4.68;;;2.80;;
71888;SDS011;59762;49.998;14.858;2023-12-07T04:08:34;4.15;;;2.72;;
71888;SDS011;59762;49.998;14.858;2023-12-07T04:11:00;5.47;;;3.80;;
71888;SDS011;59762;49.998;14.858;2023-12-07T04:13:25;5.00;;;2.88;;
71888;SDS011;59762;49.998;14.858;2023-12-07T04:15:51;4.93;;;2.78;;
71888;SDS011;59762;49.998;14.858;2023-12-07T04:18:17;4.32;;;3.42;;
71888;SDS011;59762;49.998;14.858;2023-12-07T04:20:43;7.20;;;3.38;;
71888;SDS011;59762;49.998;14.858;2023-12-07T04:23:09;8.88;;;3.63;;
71888;SDS011;59762;49.998;14.858;2023-12-07T04:25:34;7.00;;;3.78;;
71888;SDS011;59762;49.998;14.858;2023-12-07T04:28:00;5.65;;;4.13;;
71888;SDS011;59762;49.998;14.858;2023-12-07T04:30:26;7.10;;;4.28;;
71888;SDS011;59762;49.998;14.858;2023-12-07T04:32:51;8.75;;;3.92;;
71888;SDS011;59762;49.998;14.858;2023-12-07T04:35:18;7.82;;;4.35;;
71888;SDS011;59762;49.998;14.858;2023-12-07T04:37:43;8.77;;;4.03;;
71888;SDS011;59762;49.998;14.858;2023-12-07T04:40:09;4.80;;;3.10;;
71888;SDS011;59762;49.998;14.858;2023-12-07T04:42:36;5.07;;;3.53;;
71888;SDS011;59762;49.998;14.858;2023-12-07T04:45:02;6.20;;;4.30;;
71888;SDS011;59762;49.998;14.858;2023-12-07T04:47:28;6.50;;;4.15;;
71888;SDS011;59762;49.998;14.858;2023-12-07T04:49:54;6.95;;;4.13;;
71888;SDS011;59762;49.998;14.858;2023-12-07T04:52:19;8.50;;;4.80;;
71888;SDS011;59762;49.998;14.858;2023-12-07T04:54:45;4.80;;;3.22;;
71888;SDS011;59762;49.998;14.858;2023-12-07T04:57:10;6.30;;;3.78;;
71888;SDS011;59762;49.998;14.858;2023-12-07T04:59:36;7.85;;;4.63;;
71888;SDS011;59762;49.998;14.858;2023-12-07T05:02:02;8.02;;;3.10;;
71888;SDS011;59762;49.998;14.858;2023-12-07T05:04:28;7.43;;;3.38;;
71888;SDS011;59762;49.998;14.858;2023-12-07T05:06:53;6.47;;;4.00;;
71888;SDS011;59762;49.998;14.858;2023-12-07T05:09:19;7.60;;;4.20;;
71888;SDS011;59762;49.998;14.858;2023-12-07T05:11:45;8.55;;;4.47;;
71888;SDS011;59762;49.998;14.858;2023-12-07T05:14:11;9.55;;;4.50;;
71888;SDS011;59762;49.998;14.858;2023-12-07T05:16:36;6.55;;;3.30;;
71888;SDS011;59762;49.998;14.858;2023-12-07T05:19:02;6.05;;;3.70;;
71888;SDS011;59762;49.998;14.858;2023-12-07T05:21:28;8.20;;;4.28;;
71888;SDS011;59762;49.998;14.858;2023-12-07T05:23:54;6.60;;;3.47;;
71888;SDS011;59762;49.998;14.858;2023-12-07T05:26:19;7.30;;;4.32;;
71888;SDS011;59762;49.998;14.858;2023-12-07T05:28:46;6.45;;;3.72;;
71888;SDS011;59762;49.998;14.858;2023-12-07T05:31:16;6.18;;;3.63;;
71888;SDS011;59762;49.998;14.858;2023-12-07T05:33:42;7.70;;;4.47;;
71888;SDS011;59762;49.998;14.858;2023-12-07T05:36:08;5.97;;;3.53;;
71888;SDS011;59762;49.998;14.858;2023-12-07T05:38:34;8.05;;;4.40;;
71888;SDS011;59762;49.998;14.858;2023-12-07T05:40:59;10.75;;;5.40;;
71888;SDS011;59762;49.998;14.858;2023-12-07T05:43:25;5.05;;;3.22;;
71888;SDS011;59762;49.998;14.858;2023-12-07T05:45:51;5.80;;;3.70;;
71888;SDS011;59762;49.998;14.858;2023-12-07T05:48:16;7.47;;;3.88;;
71888;SDS011;59762;49.998;14.858;2023-12-07T05:50:42;6.80;;;4.57;;
71888;SDS011;59762;49.998;14.858;2023-12-07T05:53:08;7.50;;;4.72;;
71888;SDS011;59762;49.998;14.858;2023-12-07T05:55:34;6.97;;;3.80;;
71888;SDS011;59762;49.998;14.858;2023-12-07T05:58:00;9.02;;;3.97;;
71888;SDS011;59762;49.998;14.858;2023-12-07T06:00:25;4.95;;;3.47;;
71888;SDS011;59762;49.998;14.858;2023-12-07T06:02:51;7.40;;;4.38;;
71888;SDS011;59762;49.998;14.858;2023-12-07T06:05:17;5.78;;;4.55;;
71888;SDS011;59762;49.998;14.858;2023-12-07T06:07:43;5.25;;;3.75;;
71888;SDS011;59762;49.998;14.858;2023-12-07T06:10:08;5.80;;;3.30;;
71888;SDS011;59762;49.998;14.858;2023-12-07T06:12:34;6.63;;;3.83;;
71888;SDS011;59762;49.998;14.858;2023-12-07T06:15:00;6.57;;;4.30;;
71888;SDS011;59762;49.998;14.858;2023-12-07T06:17:26;7.07;;;3.85;;
71888;SDS011;59762;49.998;14.858;2023-12-07T06:19:52;4.63;;;4.10;;
71888;SDS011;59762;49.998;14.858;2023-12-07T06:22:18;9.40;;;4.63;;
71888;SDS011;59762;49.998;14.858;2023-12-07T06:24:44;8.15;;;4.32;;
71888;SDS011;59762;49.998;14.858;2023-12-07T06:27:10;10.80;;;5.70;;
71888;SDS011;59762;49.998;14.858;2023-12-07T06:29:35;12.27;;;4.78;;
71888;SDS011;59762;49.998;14.858;2023-12-07T06:32:01;6.72;;;4.97;;
71888;SDS011;59762;49.998;14.858;2023-12-07T06:34:27;10.57;;;4.65;;
71888;SDS011;59762;49.998;14.858;2023-12-07T06:36:53;7.88;;;4.35;;
71888;SDS011;59762;49.998;14.858;2023-12-07T06:39:19;10.48;;;5.07;;
71888;SDS011;59762;49.998;14.858;2023-12-07T06:41:44;10.05;;;5.07;;
71888;SDS011;59762;49.998;14.858;2023-12-07T06:44:10;5.88;;;3.90;;
71888;SDS011;59762;49.998;14.858;2023-12-07T06:46:36;10.43;;;5.10;;
71888;SDS011;59762;49.998;14.858;2023-12-07T06:49:02;9.45;;;4.90;;
71888;SDS011;59762;49.998;14.858;2023-12-07T06:51:27;11.65;;;4.57;;
71888;SDS011;59762;49.998;14.858;2023-12-07T06:53:53;9.75;;;5.32;;
71888;SDS011;59762;49.998;14.858;2023-12-07T06:56:18;7.32;;;3.58;;
71888;SDS011;59762;49.998;14.858;2023-12-07T06:58:44;9.07;;;4.05;;
71888;SDS011;59762;49.998;14.858;2023-12-07T07:01:10;8.18;;;4.53;;
71888;SDS011;59762;49.998;14.858;2023-12-07T07:03:36;6.60;;;4.30;;
71888;SDS011;59762;49.998;14.858;2023-12-07T07:06:01;16.95;;;5.00;;
71888;SDS011;59762;49.998;14.858;2023-12-07T07:08:27;10.57;;;4.95;;
71888;SDS011;59762;49.998;14.858;2023-12-07T07:10:53;10.48;;;5.28;;
71888;SDS011;59762;49.998;14.858;2023-12-07T07:13:19;9.15;;;3.83;;
71888;SDS011;59762;49.998;14.858;2023-12-07T07:15:45;6.80;;;4.90;;
71888;SDS011;59762;49.998;14.858;2023-12-07T07:18:13;23.42;;;9.77;;
71888;SDS011;59762;49.998;14.858;2023-12-07T07:20:39;142.13;;;57.47;;
71888;SDS011;59762;49.998;14.858;2023-12-07T07:23:05;42.55;;;21.45;;
71888;SDS011;59762;49.998;14.858;2023-12-07T07:25:33;70.93;;;33.95;;
71888;SDS011;59762;49.998;14.858;2023-12-07T07:27:59;34.47;;;17.35;;
71888;SDS011;59762;49.998;14.858;2023-12-07T07:30:24;53.08;;;21.80;;
71888;SDS011;59762;49.998;14.858;2023-12-07T07:32:50;61.03;;;29.95;;
71888;SDS011;59762;49.998;14.858;2023-12-07T07:35:16;328.42;;;176.38;;
71888;SDS011;59762;49.998;14.858;2023-12-07T07:37:41;27.35;;;13.63;;
71888;SDS011;59762;49.998;14.858;2023-12-07T07:40:08;12.73;;;5.32;;
71888;SDS011;59762;49.998;14.858;2023-12-07T07:42:37;12.27;;;7.15;;
71888;SDS011;59762;49.998;14.858;2023-12-07T07:45:06;13.25;;;8.07;;
71888;SDS011;59762;49.998;14.858;2023-12-07T07:47:33;9.82;;;4.60;;
71888;SDS011;59762;49.998;14.858;2023-12-07T07:49:59;10.20;;;5.85;;
71888;SDS011;59762;49.998;14.858;2023-12-07T07:52:24;15.02;;;8.75;;
71888;SDS011;59762;49.998;14.858;2023-12-07T07:54:50;12.77;;;5.65;;
71888;SDS011;59762;49.998;14.858;2023-12-07T07:57:16;48.22;;;25.52;;
71888;SDS011;59762;49.998;14.858;2023-12-07T07:59:42;151.25;;;60.97;;
71888;SDS011;59762;49.998;14.858;2023-12-07T08:02:08;45.65;;;15.35;;
71888;SDS011;59762;49.998;14.858;2023-12-07T08:04:34;24.80;;;10.57;;
71888;SDS011;59762;49.998;14.858;2023-12-07T08:06:59;40.13;;;22.10;;
71888;SDS011;59762;49.998;14.858;2023-12-07T08:09:25;48.60;;;16.42;;
71888;SDS011;59762;49.998;14.858;2023-12-07T08:11:51;52.97;;;24.38;;
71888;SDS011;59762;49.998;14.858;2023-12-07T08:14:17;48.40;;;23.60;;
71888;SDS011;59762;49.998;14.858;2023-12-07T08:16:44;44.70;;;18.85;;
71888;SDS011;59762;49.998;14.858;2023-12-07T08:19:11;33.50;;;18.42;;
71888;SDS011;59762;49.998;14.858;2023-12-07T08:21:38;57.90;;;26.67;;
71888;SDS011;59762;49.998;14.858;2023-12-07T08:24:04;21.20;;;11.55;;
71888;SDS011;59762;49.998;14.858;2023-12-07T08:26:31;34.63;;;15.65;;
71888;SDS011;59762;49.998;14.858;2023-12-07T08:28:57;37.60;;;17.20;;
71888;SDS011;59762;49.998;14.858;2023-12-07T08:31:23;48.28;;;19.77;;
71888;SDS011;59762;49.998;14.858;2023-12-07T08:33:50;24.48;;;13.18;;
71888;SDS011;59762;49.998;14.858;2023-12-07T08:36:16;69.15;;;30.27;;
71888;SDS011;59762;49.998;14.858;2023-12-07T08:38:42;45.85;;;20.67;;
71888;SDS011;59762;49.998;14.858;2023-12-07T08:41:08;56.78;;;24.67;;
71888;SDS011;59762;49.998;14.858;2023-12-07T08:43:33;46.97;;;21.40;;
71888;SDS011;59762;49.998;14.858;2023-12-07T08:45:59;76.30;;;27.35;;
71888;SDS011;59762;49.998;14.858;2023-12-07T08:48:25;69.82;;;25.63;;
71888;SDS011;59762;49.998;14.858;2023-12-07T08:50:51;61.47;;;26.75;;
71888;SDS011;59762;49.998;14.858;2023-12-07T08:53:17;99.80;;;34.25;;
71888;SDS011;59762;49.998;14.858;2023-12-07T08:55:43;187.20;;;64.72;;
71888;SDS011;59762;49.998;14.858;2023-12-07T08:58:08;141.75;;;43.70;;
71888;SDS011;59762;49.998;14.858;2023-12-07T09:00:36;183.55;;;59.85;;
71888;SDS011;59762;49.998;14.858;2023-12-07T09:03:03;281.58;;;82.05;;
71888;SDS011;59762;49.998;14.858;2023-12-07T09:05:29;203.90;;;61.25;;
71888;SDS011;59762;49.998;14.858;2023-12-07T09:07:55;184.05;;;58.00;;
71888;SDS011;59762;49.998;14.858;2023-12-07T09:10:22;189.15;;;54.15;;
71888;SDS011;59762;49.998;14.858;2023-12-07T09:12:48;184.30;;;51.28;;
71888;SDS011;59762;49.998;14.858;2023-12-07T09:15:14;104.22;;;30.48;;
71888;SDS011;59762;49.998;14.858;2023-12-07T09:17:39;229.13;;;58.47;;
71888;SDS011;59762;49.998;14.858;2023-12-07T09:20:09;110.40;;;31.08;;
71888;SDS011;59762;49.998;14.858;2023-12-07T09:22:39;45.75;;;14.55;;
71888;SDS011;59762;49.998;14.858;2023-12-07T09:25:06;96.10;;;31.08;;
71888;SDS011;59762;49.998;14.858;2023-12-07T09:27:33;62.63;;;17.70;;
71888;SDS011;59762;49.998;14.858;2023-12-07T09:30:00;90.65;;;29.70;;
71888;SDS011;59762;49.998;14.858;2023-12-07T09:32:27;38.45;;;12.52;;
71888;SDS011;59762;49.998;14.858;2023-12-07T09:34:53;30.30;;;16.70;;
71888;SDS011;59762;49.998;14.858;2023-12-07T09:37:19;59.38;;;22.55;;
71888;SDS011;59762;49.998;14.858;2023-12-07T09:39:45;24.35;;;11.35;;
71888;SDS011;59762;49.998;14.858;2023-12-07T09:42:10;78.85;;;28.50;;
71888;SDS011;59762;49.998;14.858;2023-12-07T09:44:37;65.32;;;19.95;;
71888;SDS011;59762;49.998;14.858;2023-12-07T09:47:02;74.70;;;21.88;;
71888;SDS011;59762;49.998;14.858;2023-12-07T09:49:29;200.13;;;55.40;;
71888;SDS011;59762;49.998;14.858;2023-12-07T09:51:55;274.08;;;75.97;;
71888;SDS011;59762;49.998;14.858;2023-12-07T09:54:22;217.32;;;55.35;;
71888;SDS011;59762;49.998;14.858;2023-12-07T09:56:48;127.07;;;35.88;;
71888;SDS011;59762;49.998;14.858;2023-12-07T09:59:14;366.45;;;100.20;;
71888;SDS011;59762;49.998;14.858;2023-12-07T10:01:40;50.28;;;13.48;;
71888;SDS011;59762;49.998;14.858;2023-12-07T10:06:42;203.10;;;61.65;;
71888;SDS011;59762;49.998;14.858;2023-12-07T10:09:10;141.00;;;41.80;;
71888;SDS011;59762;49.998;14.858;2023-12-07T10:11:36;223.00;;;61.38;;
71888;SDS011;59762;49.998;14.858;2023-12-07T10:14:02;144.55;;;44.50;;
71888;SDS011;59762;49.998;14.858;2023-12-07T10:16:28;49.58;;;15.25;;
71888;SDS011;59762;49.998;14.858;2023-12-07T10:18:54;36.40;;;13.55;;
71888;SDS011;59762;49.998;14.858;2023-12-07T10:21:41;19.48;;;7.88;;
71888;SDS011;59762;49.998;14.858;2023-12-07T10:24:06;51.28;;;18.17;;
71888;SDS011;59762;49.998;14.858;2023-12-07T10:26:32;67.18;;;21.13;;
71888;SDS011;59762;49.998;14.858;2023-12-07T10:28:57;36.65;;;14.43;;
71888;SDS011;59762;49.998;14.858;2023-12-07T10:31:25;68.00;;;21.73;;
71888;SDS011;59762;49.998;14.858;2023-12-07T10:33:51;106.43;;;39.65;;
71888;SDS011;59762;49.998;14.858;2023-12-07T10:36:17;147.93;;;56.83;;
71888;SDS011;59762;49.998;14.858;2023-12-07T10:38:43;40.97;;;16.30;;
71888;SDS011;59762;49.998;14.858;2023-12-07T10:41:12;41.30;;;16.90;;
71888;SDS011;59762;49.998;14.858;2023-12-07T10:43:40;85.15;;;34.72;;
71888;SDS011;59762;49.998;14.858;2023-12-07T10:46:09;18.65;;;8.20;;
71888;SDS011;59762;49.998;14.858;2023-12-07T10:48:40;35.65;;;11.90;;
71888;SDS011;59762;49.998;14.858;2023-12-07T10:51:08;19.20;;;7.55;;
71888;SDS011;59762;49.998;14.858;2023-12-07T10:53:44;70.40;;;23.95;;
71888;SDS011;59762;49.998;14.858;2023-12-07T10:56:10;12.38;;;5.15;;
71888;SDS011;59762;49.998;14.858;2023-12-07T10:58:38;83.35;;;29.10;;
71888;SDS011;59762;49.998;14.858;2023-12-07T11:01:07;92.18;;;27.48;;
71888;SDS011;59762;49.998;14.858;2023-12-07T11:03:36;21.45;;;8.00;;
71888;SDS011;59762;49.998;14.858;2023-12-07T11:06:06;75.32;;;22.05;;
71888;SDS011;59762;49.998;14.858;2023-12-07T11:13:38;26.05;;;9.27;;
71888;SDS011;59762;49.998;14.858;2023-12-07T11:16:12;48.20;;;15.07;;
71888;SDS011;59762;49.998;14.858;2023-12-07T11:18:37;128.48;;;45.22;;
71888;SDS011;59762;49.998;14.858;2023-12-07T11:21:03;37.65;;;12.93;;
71888;SDS011;59762;49.998;14.858;2023-12-07T11:23:30;14.35;;;5.88;;
71888;SDS011;59762;49.998;14.858;2023-12-07T11:25:56;10.13;;;4.57;;
71888;SDS011;59762;49.998;14.858;2023-12-07T11:28:35;160.00;;;52.45;;
71888;SDS011;59762;49.998;14.858;2023-12-07T11:31:02;9.73;;;6.50;;
71888;SDS011;59762;49.998;14.858;2023-12-07T11:33:29;25.52;;;10.27;;
71888;SDS011;59762;49.998;14.858;2023-12-07T11:38:27;116.50;;;42.45;;
71888;SDS011;59762;49.998;14.858;2023-12-07T11:40:53;27.00;;;12.00;;
71888;SDS011;59762;49.998;14.858;2023-12-07T11:45:58;24.83;;;11.02;;
71888;SDS011;59762;49.998;14.858;2023-12-07T11:48:25;11.88;;;6.75;;
71888;SDS011;59762;49.998;14.858;2023-12-07T11:51:00;32.58;;;12.85;;
71888;SDS011;59762;49.998;14.858;2023-12-07T11:53:30;22.27;;;10.43;;
71888;SDS011;59762;49.998;14.858;2023-12-07T11:55:57;26.02;;;11.75;;
71888;SDS011;59762;49.998;14.858;2023-12-07T11:58:24;20.38;;;11.05;;
71888;SDS011;59762;49.998;14.858;2023-12-07T12:00:54;79.50;;;29.58;;
71888;SDS011;59762;49.998;14.858;2023-12-07T12:03:25;48.45;;;22.88;;
71888;SDS011;59762;49.998;14.858;2023-12-07T12:05:55;45.65;;;17.48;;
71888;SDS011;59762;49.998;14.858;2023-12-07T12:08:21;63.33;;;25.73;;
71888;SDS011;59762;49.998;14.858;2023-12-07T12:10:47;18.98;;;6.75;;
71888;SDS011;59762;49.998;14.858;2023-12-07T12:13:15;17.90;;;8.45;;
71888;SDS011;59762;49.998;14.858;2023-12-07T12:15:41;15.93;;;6.97;;
71888;SDS011;59762;49.998;14.858;2023-12-07T12:18:08;37.45;;;14.65;;
71888;SDS011;59762;49.998;14.858;2023-12-07T12:20:35;35.30;;;15.82;;
71888;SDS011;59762;49.998;14.858;2023-12-07T12:23:01;39.00;;;16.83;;
71888;SDS011;59762;49.998;14.858;2023-12-07T12:25:28;30.58;;;12.63;;
71888;SDS011;59762;49.998;14.858;2023-12-07T12:27:56;13.40;;;7.20;;
71888;SDS011;59762;49.998;14.858;2023-12-07T12:30:23;12.68;;;7.13;;
71888;SDS011;59762;49.998;14.858;2023-12-07T12:32:50;23.63;;;12.60;;
71888;SDS011;59762;49.998;14.858;2023-12-07T12:35:19;11.52;;;6.47;;
71888;SDS011;59762;49.998;14.858;2023-12-07T12:37:45;10.02;;;6.70;;
71888;SDS011;59762;49.998;14.858;2023-12-07T12:40:12;11.90;;;5.20;;
71888;SDS011;59762;49.998;14.858;2023-12-07T12:42:59;19.25;;;9.52;;
71888;SDS011;59762;49.998;14.858;2023-12-07T12:45:25;19.90;;;10.75;;
71888;SDS011;59762;49.998;14.858;2023-12-07T12:47:51;11.82;;;7.40;;
71888;SDS011;59762;49.998;14.858;2023-12-07T12:53:02;29.50;;;14.82;;
71888;SDS011;59762;49.998;14.858;2023-12-07T12:55:30;38.08;;;16.17;;
71888;SDS011;59762;49.998;14.858;2023-12-07T12:57:58;40.45;;;18.50;;
71888;SDS011;59762;49.998;14.858;2023-12-07T13:00:27;16.65;;;8.55;;
71888;SDS011;59762;49.998;14.858;2023-12-07T13:02:53;27.73;;;12.50;;
71888;SDS011;59762;49.998;14.858;2023-12-07T13:05:18;22.48;;;12.10;;
71888;SDS011;59762;49.998;14.858;2023-12-07T13:07:44;11.48;;;6.60;;
71888;SDS011;59762;49.998;14.858;2023-12-07T13:10:12;13.23;;;7.00;;
71888;SDS011;59762;49.998;14.858;2023-12-07T13:12:38;15.02;;;9.00;;
71888;SDS011;59762;49.998;14.858;2023-12-07T13:15:04;24.80;;;12.98;;
71888;SDS011;59762;49.998;14.858;2023-12-07T13:17:30;26.90;;;12.13;;
71888;SDS011;59762;49.998;14.858;2023-12-07T13:19:57;32.90;;;16.50;;
71888;SDS011;59762;49.998;14.858;2023-12-07T13:22:23;25.45;;;12.75;;
71888;SDS011;59762;49.998;14.858;2023-12-07T13:24:48;42.25;;;19.25;;
71888;SDS011;59762;49.998;14.858;2023-12-07T13:27:15;46.78;;;19.77;;
71888;SDS011;59762;49.998;14.858;2023-12-07T13:29:41;40.05;;;17.15;;
71888;SDS011;59762;49.998;14.858;2023-12-07T13:32:07;28.30;;;11.70;;
71888;SDS011;59762;49.998;14.858;2023-12-07T13:34:33;21.60;;;12.82;;
71888;SDS011;59762;49.998;14.858;2023-12-07T13:36:59;39.08;;;19.33;;
71888;SDS011;59762;49.998;14.858;2023-12-07T13:39:24;53.45;;;24.27;;
71888;SDS011;59762;49.998;14.858;2023-12-07T13:41:52;56.67;;;26.02;;
71888;SDS011;59762;49.998;14.858;2023-12-07T13:44:17;31.52;;;14.50;;
71888;SDS011;59762;49.998;14.858;2023-12-07T13:46:45;110.95;;;48.13;;
71888;SDS011;59762;49.998;14.858;2023-12-07T13:49:11;104.38;;;41.00;;
71888;SDS011;59762;49.998;14.858;2023-12-07T13:51:39;106.75;;;43.40;;
71888;SDS011;59762;49.998;14.858;2023-12-07T13:54:06;74.05;;;32.58;;
71888;SDS011;59762;49.998;14.858;2023-12-07T13:56:34;83.20;;;37.65;;
71888;SDS011;59762;49.998;14.858;2023-12-07T13:59:00;93.22;;;35.85;;
71888;SDS011;59762;49.998;14.858;2023-12-07T14:01:26;55.17;;;22.60;;
71888;SDS011;59762;49.998;14.858;2023-12-07T14:03:52;101.68;;;33.17;;
71888;SDS011;59762;49.998;14.858;2023-12-07T14:06:21;95.28;;;29.90;;
71888;SDS011;59762;49.998;14.858;2023-12-07T14:08:49;64.80;;;23.50;;
71888;SDS011;59762;49.998;14.858;2023-12-07T14:11:15;152.82;;;55.08;;
71888;SDS011;59762;49.998;14.858;2023-12-07T14:13:44;181.35;;;43.97;;
71888;SDS011;59762;49.998;14.858;2023-12-07T14:16:14;201.82;;;51.42;;
71888;SDS011;59762;49.998;14.858;2023-12-07T14:18:39;96.10;;;28.75;;
71888;SDS011;59762;49.998;14.858;2023-12-07T14:21:06;123.38;;;37.20;;
71888;SDS011;59762;49.998;14.858;2023-12-07T14:23:31;50.63;;;19.02;;
71888;SDS011;59762;49.998;14.858;2023-12-07T14:25:57;73.03;;;21.45;;
71888;SDS011;59762;49.998;14.858;2023-12-07T14:28:24;146.82;;;41.50;;
71888;SDS011;59762;49.998;14.858;2023-12-07T14:30:50;186.25;;;59.33;;
71888;SDS011;59762;49.998;14.858;2023-12-07T14:33:21;93.03;;;29.73;;